createdAt,value
2023-04-05T00:00:46.864Z,59.30
2023-04-05T00:03:14.323Z,59.30
2023-04-05T00:05:41.731Z,59.60
2023-04-05T00:08:13.337Z,59.60
2023-04-05T00:10:41.206Z,59.60
2023-04-05T00:13:08.863Z,59.70
2023-04-05T00:15:36.245Z,60.20
2023-04-05T00:18:03.772Z,60.70
2023-04-05T00:20:31.155Z,60.50
2023-04-05T00:22:58.346Z,60.20
2023-04-05T00:25:26.105Z,60.00
2023-04-05T00:27:53.401Z,60.50
2023-04-05T00:30:21.279Z,60.70
2023-04-05T00:32:49.894Z,60.70
2023-04-05T00:35:17.743Z,60.80
2023-04-05T00:37:45.054Z,61.10
2023-04-05T00:40:12.770Z,61.20
2023-04-05T00:42:40.220Z,61.20
2023-04-05T00:45:08.028Z,61.20
2023-04-05T00:47:35.568Z,61.30
2023-04-05T00:50:03.701Z,61.40
2023-04-05T00:52:32.109Z,61.30
2023-04-05T00:54:59.673Z,61.50
2023-04-05T00:57:30.051Z,61.40
2023-04-05T00:59:59.839Z,61.40
2023-04-05T01:02:39.211Z,61.10
2023-04-05T01:05:24.279Z,61.20
2023-04-05T01:08:04.593Z,61.30
2023-04-05T01:10:44.857Z,61.20
2023-04-05T01:13:12.540Z,61.40
2023-04-05T01:15:41.054Z,61.10
2023-04-05T01:18:10.515Z,61.20
2023-04-05T01:20:43.051Z,61.20
2023-04-05T01:23:55.242Z,61.20
2023-04-05T01:26:56.610Z,61.80
2023-04-05T01:29:41.837Z,61.80
2023-04-05T01:32:46.487Z,61.70
2023-04-05T01:35:34.901Z,62.10
2023-04-05T01:38:06.309Z,61.90
2023-04-05T01:40:36.770Z,61.40
2023-04-05T01:43:16.289Z,61.50
2023-04-05T01:45:44.697Z,62.20
2023-04-05T01:48:13.178Z,62.30
2023-04-05T01:50:40.856Z,62.50
2023-04-05T01:53:08.907Z,62.50
2023-04-05T01:55:36.682Z,62.60
2023-04-05T01:58:04.044Z,62.30
2023-04-05T02:00:31.441Z,62.40
2023-04-05T02:02:58.783Z,62.60
2023-04-05T02:05:26.125Z,62.50
2023-04-05T02:07:53.554Z,62.40
2023-04-05T02:10:24.503Z,62.30
2023-04-05T02:12:51.969Z,62.40
2023-04-05T02:15:19.525Z,62.40
2023-04-05T02:17:46.817Z,62.40
2023-04-05T02:20:14.951Z,62.50
2023-04-05T02:22:45.070Z,62.40
2023-04-05T02:25:13.198Z,62.50
2023-04-05T02:27:41.083Z,62.50
2023-04-05T02:30:09.378Z,62.40
2023-04-05T02:32:36.919Z,62.60
2023-04-05T02:35:04.852Z,62.90
2023-04-05T02:37:32.040Z,63.00
2023-04-05T02:39:59.346Z,63.30
2023-04-05T02:42:26.651Z,63.50
2023-04-05T02:44:53.941Z,63.40
2023-04-05T02:47:22.952Z,63.30
2023-04-05T02:49:58.266Z,63.30
2023-04-05T02:52:28.818Z,63.30
2023-04-05T02:54:56.078Z,63.30
2023-04-05T02:57:28.236Z,63.30
2023-04-05T03:00:05.010Z,63.50
2023-04-05T03:02:33.259Z,63.40
2023-04-05T03:05:02.378Z,63.50
2023-04-05T03:07:32.995Z,64.30
2023-04-05T03:10:02.972Z,63.90
2023-04-05T03:12:30.611Z,63.80
2023-04-05T03:14:58.131Z,63.70
2023-04-05T03:17:27.057Z,63.60
2023-04-05T03:20:08.771Z,63.50
2023-04-05T03:22:36.270Z,63.60
2023-04-05T03:25:04.832Z,63.80
2023-04-05T03:27:33.866Z,64.00
2023-04-05T03:30:06.737Z,64.00
2023-04-05T03:32:38.548Z,64.20
2023-04-05T03:35:22.023Z,64.10
2023-04-05T03:37:50.743Z,64.00
2023-04-05T03:40:19.043Z,64.10
2023-04-05T03:42:46.507Z,64.00
2023-04-05T03:45:14.660Z,63.90
2023-04-05T03:47:42.741Z,63.90
2023-04-05T03:50:10.394Z,64.10
2023-04-05T03:52:37.754Z,64.20
2023-04-05T03:55:06.751Z,64.50
2023-04-05T03:57:38.707Z,64.50
2023-04-05T04:00:19.869Z,64.50
2023-04-05T04:03:01.870Z,64.30
2023-04-05T04:05:29.260Z,64.30
2023-04-05T04:07:56.628Z,64.30
2023-04-05T04:10:24.396Z,64.30
2023-04-05T04:12:55.862Z,64.20
2023-04-05T04:15:28.203Z,64.10
2023-04-05T04:18:16.014Z,64.00
2023-04-05T04:21:13.509Z,64.20
2023-04-05T04:24:00.887Z,64.50
2023-04-05T04:27:03.646Z,64.40
2023-04-05T04:29:49.573Z,64.20
2023-04-05T04:32:54.465Z,64.20
2023-04-05T04:35:34.711Z,64.30
2023-04-05T04:38:20.346Z,64.30
2023-04-05T04:41:14.293Z,64.40
2023-04-05T04:44:03.127Z,64.40
2023-04-05T04:46:42.546Z,64.80
2023-04-05T04:49:17.142Z,65.40
2023-04-05T04:51:48.797Z,65.40
2023-04-05T04:54:20.767Z,65.30
2023-04-05T04:56:48.555Z,65.50
2023-04-05T04:59:16.182Z,65.50
2023-04-05T05:01:46.588Z,65.50
2023-04-05T05:04:14.067Z,65.60
2023-04-05T05:06:42.549Z,65.70
2023-04-05T05:09:09.954Z,65.90
2023-04-05T05:11:48.032Z,66.00
2023-04-05T05:14:15.654Z,65.90
2023-04-05T05:16:43.167Z,65.90
2023-04-05T05:19:10.978Z,65.80
2023-04-05T05:21:47.074Z,65.90
2023-04-05T05:24:14.739Z,66.00
2023-04-05T05:26:42.407Z,65.90
2023-04-05T05:29:10.038Z,65.70
2023-04-05T05:31:41.176Z,65.80
2023-04-05T05:34:08.531Z,65.90
2023-04-05T05:36:38.335Z,65.90
2023-04-05T05:39:06.417Z,66.00
2023-04-05T05:41:34.169Z,66.10
2023-04-05T05:44:01.689Z,66.00
2023-04-05T05:46:29.247Z,66.20
2023-04-05T05:48:56.831Z,66.00
2023-04-05T05:51:24.257Z,65.80
2023-04-05T05:53:51.723Z,65.80
2023-04-05T05:56:19.134Z,65.70
2023-04-05T05:58:46.661Z,65.60
2023-04-05T06:01:14.338Z,65.60
2023-04-05T06:03:42.016Z,65.50
2023-04-05T06:06:11.023Z,65.50
2023-04-05T06:08:38.562Z,65.50
2023-04-05T06:11:06.013Z,65.40
2023-04-05T06:13:33.617Z,65.20
2023-04-05T06:16:01.905Z,65.00
2023-04-05T06:18:29.403Z,64.90
2023-04-05T06:20:56.778Z,64.90
2023-04-05T06:23:24.154Z,64.90
2023-04-05T06:25:51.525Z,65.00
2023-04-05T06:28:18.910Z,65.10
2023-04-05T06:30:46.310Z,65.00
2023-04-05T06:33:13.898Z,64.50
2023-04-05T06:35:41.342Z,64.60
2023-04-05T06:38:09.556Z,63.50
2023-04-05T06:40:37.089Z,63.30
2023-04-05T06:43:04.432Z,63.10
2023-04-05T06:45:33.162Z,62.30
2023-04-05T06:48:00.830Z,60.60
2023-04-05T06:50:28.326Z,59.50
2023-04-05T06:52:55.645Z,58.30
2023-04-05T06:55:22.979Z,57.60
2023-04-05T06:57:50.278Z,56.90
2023-04-05T07:00:18.461Z,54.90
2023-04-05T07:02:45.866Z,54.40
2023-04-05T07:05:13.498Z,53.60
2023-04-05T07:07:43.953Z,52.70
2023-04-05T07:10:11.889Z,51.40
2023-04-05T07:12:39.955Z,50.70
2023-04-05T07:15:08.246Z,49.40
2023-04-05T07:17:36.471Z,48.10
2023-04-05T07:20:06.609Z,46.80
2023-04-05T07:22:35.112Z,46.50
2023-04-05T07:25:02.715Z,45.10
2023-04-05T07:27:31.014Z,44.10
2023-04-05T07:29:58.482Z,43.50
2023-04-05T07:32:25.971Z,42.90
2023-04-05T07:34:53.436Z,42.30
2023-04-05T07:37:20.836Z,41.40
2023-04-05T07:39:48.444Z,40.50
2023-04-05T07:42:17.796Z,39.60
2023-04-05T07:44:45.891Z,39.20
2023-04-05T07:47:13.288Z,38.00
2023-04-05T07:49:40.795Z,36.90
2023-04-05T07:52:08.162Z,36.80
2023-04-05T07:54:38.517Z,36.30
2023-04-05T07:57:07.412Z,36.00
2023-04-05T07:59:35.088Z,35.60
2023-04-05T08:02:12.322Z,35.30
2023-04-05T08:04:42.227Z,34.90
2023-04-05T08:07:09.802Z,34.90
2023-04-05T08:09:37.337Z,34.70
2023-04-05T08:12:05.126Z,33.90
2023-04-05T08:14:32.579Z,33.60
2023-04-05T08:17:00.027Z,33.20
2023-04-05T08:19:27.513Z,32.50
2023-04-05T08:21:54.926Z,31.50
2023-04-05T08:24:22.332Z,30.80
2023-04-05T08:26:49.856Z,30.40
2023-04-05T08:29:17.425Z,29.70
2023-04-05T08:31:45.403Z,29.80
2023-04-05T08:34:12.843Z,29.30
2023-04-05T08:36:40.444Z,29.70
2023-04-05T08:39:07.985Z,29.30
2023-04-05T08:41:47.221Z,29.30
2023-04-05T08:44:15.966Z,28.90
2023-04-05T08:46:44.179Z,28.20
2023-04-05T08:49:11.750Z,28.60
2023-04-05T08:51:39.543Z,28.60
2023-04-05T08:54:07.124Z,28.20
2023-04-05T08:56:36.360Z,28.00
2023-04-05T08:59:09.553Z,27.90
2023-04-05T09:01:41.504Z,27.70
2023-04-05T09:04:27.279Z,27.80
2023-04-05T09:06:57.924Z,27.10
2023-04-05T09:09:26.207Z,27.10
2023-04-05T09:11:53.793Z,27.20
2023-04-05T09:14:21.736Z,27.40
2023-04-05T09:16:49.425Z,27.60
2023-04-05T09:19:16.886Z,28.20
2023-04-05T09:22:07.691Z,28.60
2023-04-05T09:24:41.778Z,28.60
2023-04-05T09:27:13.491Z,28.80
2023-04-05T09:29:43.253Z,29.00
2023-04-05T09:32:12.152Z,29.10
2023-04-05T09:34:41.104Z,29.70
2023-04-05T09:37:14.836Z,30.90
2023-04-05T09:39:42.681Z,29.80
2023-04-05T09:42:15.658Z,29.40
2023-04-05T09:45:02.812Z,29.70
2023-04-05T09:47:34.983Z,29.80
2023-04-05T09:50:18.764Z,30.30
2023-04-05T09:52:46.541Z,30.30
2023-04-05T09:55:14.351Z,30.10
2023-04-05T09:57:43.735Z,30.20
2023-04-05T10:00:20.615Z,30.90
2023-04-05T10:02:53.825Z,30.70
2023-04-05T10:05:25.414Z,30.80
2023-04-05T10:07:53.696Z,30.30
2023-04-05T10:10:23.162Z,30.40
2023-04-05T10:12:51.264Z,30.30
2023-04-05T10:15:19.234Z,30.40
2023-04-05T10:18:15.978Z,30.90
2023-04-05T10:20:47.495Z,30.80
2023-04-05T10:23:23.459Z,30.80
2023-04-05T10:25:53.953Z,31.10
2023-04-05T10:28:35.641Z,31.50
2023-04-05T10:31:09.249Z,31.50
2023-04-05T10:33:45.461Z,30.50
2023-04-05T10:36:21.564Z,30.80
2023-04-05T10:39:00.249Z,31.40
2023-04-05T10:41:34.533Z,31.70
2023-04-05T10:44:11.951Z,32.10
2023-04-05T10:46:46.789Z,32.10
2023-04-05T10:49:45.657Z,32.00
2023-04-05T10:52:14.085Z,32.30
2023-04-05T10:54:42.638Z,31.90
2023-04-05T10:57:10.980Z,32.00
2023-04-05T10:59:47.054Z,32.50
2023-04-05T11:02:15.507Z,32.50
2023-04-05T11:04:43.174Z,32.60
2023-04-05T11:07:17.963Z,33.00
2023-04-05T11:10:04.986Z,33.00
2023-04-05T11:12:48.508Z,33.40
2023-04-05T11:15:28.057Z,33.30
2023-04-05T11:18:16.849Z,33.90
2023-04-05T11:20:53.053Z,34.10
2023-04-05T11:23:24.851Z,34.30
2023-04-05T11:25:53.508Z,34.60
2023-04-05T11:28:28.201Z,35.20
2023-04-05T11:30:59.262Z,35.50
2023-04-05T11:33:36.640Z,35.60
2023-04-05T11:36:04.573Z,34.60
2023-04-05T11:38:32.146Z,34.90
2023-04-05T11:41:17.947Z,33.70
2023-04-05T11:43:47.584Z,34.30
2023-04-05T11:46:15.568Z,33.90
2023-04-05T11:48:43.114Z,33.70
2023-04-05T11:51:11.095Z,33.50
2023-04-05T11:53:38.840Z,33.40
2023-04-05T11:56:15.739Z,33.30
2023-04-05T11:58:43.140Z,33.60
2023-04-05T12:01:10.839Z,34.70
2023-04-05T12:03:38.605Z,34.30
2023-04-05T12:06:07.715Z,34.30
2023-04-05T12:08:41.005Z,33.90
2023-04-05T12:11:11.521Z,33.60
2023-04-05T12:13:39.704Z,33.20
2023-04-05T12:16:09.395Z,32.60
2023-04-05T12:18:37.924Z,32.00
2023-04-05T12:21:09.870Z,31.70
2023-04-05T12:23:38.191Z,31.70
2023-04-05T12:26:08.049Z,32.40
2023-04-05T12:28:54.799Z,33.00
2023-04-05T12:31:42.002Z,33.70
2023-04-05T12:34:10.817Z,33.30
2023-04-05T12:36:43.296Z,32.30
2023-04-05T12:39:10.820Z,32.60
2023-04-05T12:41:38.482Z,31.90
2023-04-05T12:44:16.120Z,31.70
2023-04-05T12:46:44.373Z,30.70
2023-04-05T12:49:16.056Z,30.50
2023-04-05T12:51:48.056Z,31.20
2023-04-05T12:54:23.118Z,31.70
2023-04-05T12:56:52.871Z,31.80
2023-04-05T12:59:24.224Z,31.60
2023-04-05T13:01:51.865Z,31.50
2023-04-05T13:04:19.324Z,31.00
2023-04-05T13:06:50.075Z,31.20
2023-04-05T13:09:17.474Z,31.20
2023-04-05T13:11:44.897Z,30.70
2023-04-05T13:14:12.332Z,30.60
2023-04-05T13:16:39.935Z,30.60
2023-04-05T13:19:07.474Z,30.60
2023-04-05T13:21:34.922Z,30.60
2023-04-05T13:24:02.564Z,31.00
2023-04-05T13:26:29.950Z,31.10
2023-04-05T13:28:57.267Z,31.00
2023-04-05T13:31:24.662Z,31.20
2023-04-05T13:33:52.226Z,31.10
2023-04-05T13:36:19.653Z,30.00
2023-04-05T13:38:47.021Z,30.30
2023-04-05T13:41:15.898Z,30.20
2023-04-05T13:43:43.378Z,30.60
2023-04-05T13:46:11.021Z,31.10
2023-04-05T13:48:38.760Z,31.90
2023-04-05T13:51:06.280Z,31.50
2023-04-05T13:53:33.665Z,31.60
2023-04-05T13:56:01.177Z,31.50
2023-04-05T13:58:28.896Z,31.50
2023-04-05T14:00:57.087Z,31.70
2023-04-05T14:03:25.801Z,31.90
2023-04-05T14:05:55.347Z,32.00
2023-04-05T14:08:23.089Z,32.10
2023-04-05T14:10:50.718Z,32.90
2023-04-05T14:13:18.126Z,32.30
2023-04-05T14:15:45.969Z,32.20
2023-04-05T14:18:13.833Z,32.10
2023-04-05T14:20:42.401Z,31.70
2023-04-05T14:23:10.207Z,31.70
2023-04-05T14:25:37.779Z,32.10
2023-04-05T14:28:05.374Z,32.10
2023-04-05T14:30:32.904Z,31.50
2023-04-05T14:33:00.455Z,31.70
2023-04-05T14:35:28.293Z,31.70
2023-04-05T14:37:55.889Z,31.80
2023-04-05T14:40:23.465Z,31.70
2023-04-05T14:42:50.948Z,32.00
2023-04-05T14:45:18.660Z,31.90
2023-04-05T14:47:46.153Z,32.30
2023-04-05T14:50:13.781Z,31.80
2023-04-05T14:52:41.366Z,31.90
2023-04-05T14:55:09.311Z,31.60
2023-04-05T14:57:37.034Z,31.30
2023-04-05T15:00:07.246Z,31.90
2023-04-05T15:02:35.984Z,31.90
2023-04-05T15:05:05.350Z,31.40
2023-04-05T15:07:33.454Z,31.30
2023-04-05T15:10:01.395Z,31.60
2023-04-05T15:12:29.420Z,31.30
2023-04-05T15:14:57.697Z,31.00
2023-04-05T15:17:25.549Z,31.10
2023-04-05T15:19:52.965Z,30.40
2023-04-05T15:22:23.334Z,30.60
2023-04-05T15:24:50.949Z,30.80
2023-04-05T15:27:18.444Z,31.10
2023-04-05T15:29:45.700Z,30.80
2023-04-05T15:32:13.162Z,30.70
2023-04-05T15:34:41.212Z,30.30
2023-04-05T15:37:08.552Z,30.70
2023-04-05T15:39:35.871Z,30.80
2023-04-05T15:42:03.385Z,31.00
2023-04-05T15:44:31.008Z,30.80
2023-04-05T15:46:58.752Z,31.10
2023-04-05T15:49:26.052Z,31.00
2023-04-05T15:51:53.506Z,31.10
2023-04-05T15:54:21.142Z,31.00
2023-04-05T15:56:48.747Z,30.70
2023-04-05T15:59:16.319Z,30.60
2023-04-05T16:01:44.111Z,30.90
2023-04-05T16:04:11.722Z,30.70
2023-04-05T16:06:39.211Z,30.90
2023-04-05T16:09:06.796Z,31.00
2023-04-05T16:11:34.412Z,30.90
2023-04-05T16:14:03.090Z,31.00
2023-04-05T16:16:38.487Z,31.10
2023-04-05T16:19:13.828Z,31.20
2023-04-05T16:21:42.078Z,31.40
2023-04-05T16:24:09.606Z,31.10
2023-04-05T16:26:37.388Z,31.30
2023-04-05T16:29:05.276Z,31.40
2023-04-05T16:31:33.145Z,31.10
2023-04-05T16:34:00.841Z,31.10
2023-04-05T16:36:28.645Z,31.20
2023-04-05T16:38:56.096Z,31.50
2023-04-05T16:41:23.669Z,31.70
2023-04-05T16:43:51.798Z,31.60
2023-04-05T16:46:19.380Z,31.80
2023-04-05T16:48:46.883Z,31.80
2023-04-05T16:51:15.676Z,31.90
2023-04-05T16:53:43.262Z,31.80
2023-04-05T16:56:10.808Z,31.90
2023-04-05T16:58:38.266Z,31.90
2023-04-05T17:01:05.742Z,31.80
2023-04-05T17:03:33.383Z,31.90
2023-04-05T17:06:01.749Z,32.00
2023-04-05T17:08:30.175Z,32.40
2023-04-05T17:10:57.653Z,32.40
2023-04-05T17:13:25.407Z,32.40
2023-04-05T17:15:52.777Z,32.30
2023-04-05T17:18:20.554Z,32.30
2023-04-05T17:20:47.968Z,32.50
2023-04-05T17:23:15.681Z,32.70
2023-04-05T17:25:43.087Z,32.70
2023-04-05T17:28:10.432Z,32.70
2023-04-05T17:30:38.363Z,33.30
2023-04-05T17:33:06.374Z,33.70
2023-04-05T17:35:33.939Z,33.80
2023-04-05T17:38:03.337Z,34.00
2023-04-05T17:40:31.079Z,34.00
2023-04-05T17:42:58.456Z,34.00
2023-04-05T17:45:25.740Z,34.00
2023-04-05T17:47:53.346Z,34.30
2023-04-05T17:50:22.164Z,34.80
2023-04-05T17:52:50.670Z,34.80
2023-04-05T17:55:18.030Z,35.00
2023-04-05T17:57:45.707Z,35.00
2023-04-05T18:00:13.822Z,35.10
2023-04-05T18:02:41.581Z,35.60
2023-04-05T18:05:10.143Z,34.90
2023-04-05T18:07:38.223Z,35.30
2023-04-05T18:10:06.881Z,35.80
2023-04-05T18:12:34.509Z,35.80
2023-04-05T18:15:01.892Z,36.00
2023-04-05T18:17:29.270Z,36.20
2023-04-05T18:19:57.097Z,36.80
2023-04-05T18:22:24.666Z,37.10
2023-04-05T18:24:51.958Z,37.80
2023-04-05T18:27:19.425Z,37.50
2023-04-05T18:29:46.765Z,37.40
2023-04-05T18:32:14.157Z,37.80
2023-04-05T18:34:41.975Z,37.90
2023-04-05T18:37:09.265Z,38.20
2023-04-05T18:39:36.662Z,39.00
2023-04-05T18:42:04.239Z,38.50
2023-04-05T18:44:31.940Z,38.60
2023-04-05T18:46:59.525Z,39.00
2023-04-05T18:49:27.301Z,39.70
2023-04-05T18:51:55.826Z,39.10
2023-04-05T18:54:23.412Z,39.20
2023-04-05T18:56:50.925Z,39.70
2023-04-05T18:59:18.369Z,40.20
2023-04-05T19:01:45.958Z,40.20
2023-04-05T19:04:13.514Z,39.80
2023-04-05T19:06:40.849Z,39.50
2023-04-05T19:09:08.337Z,39.20
2023-04-05T19:11:36.076Z,39.60
2023-04-05T19:14:04.043Z,39.90
2023-04-05T19:16:31.620Z,40.50
2023-04-05T19:18:59.245Z,40.90
2023-04-05T19:21:26.736Z,41.20
2023-04-05T19:23:54.301Z,41.30
2023-04-05T19:26:22.690Z,41.90
2023-04-05T19:28:50.571Z,42.40
2023-04-05T19:31:17.916Z,43.80
2023-04-05T19:33:45.518Z,44.90
2023-04-05T19:36:12.937Z,45.50
2023-04-05T19:38:40.654Z,45.70
2023-04-05T19:41:07.961Z,46.00
2023-04-05T19:43:36.625Z,46.10
2023-04-05T19:46:08.320Z,45.90
2023-04-05T19:48:38.572Z,46.40
2023-04-05T19:51:08.090Z,46.00
2023-04-05T19:53:42.479Z,46.20
2023-04-05T19:56:14.979Z,46.70
2023-04-05T19:58:43.052Z,46.20
2023-04-05T20:01:10.746Z,46.10
2023-04-05T20:03:39.823Z,46.00
2023-04-05T20:06:16.766Z,46.30
2023-04-05T20:08:47.808Z,46.40
2023-04-05T20:11:22.522Z,46.30
2023-04-05T20:13:52.225Z,47.00
2023-04-05T20:16:28.399Z,48.20
2023-04-05T20:18:59.217Z,48.50
2023-04-05T20:21:26.958Z,48.10
2023-04-05T20:23:55.457Z,47.50
2023-04-05T20:26:28.958Z,47.40
2023-04-05T20:28:58.746Z,47.70
2023-04-05T20:31:28.961Z,48.10
2023-04-05T20:33:59.300Z,48.90
2023-04-05T20:36:37.940Z,49.20
2023-04-05T20:39:07.179Z,49.10
2023-04-05T20:41:34.782Z,48.40
2023-04-05T20:44:02.173Z,48.30
2023-04-05T20:46:29.983Z,48.00
2023-04-05T20:48:58.824Z,48.10
2023-04-05T20:51:26.583Z,48.10
2023-04-05T20:53:55.453Z,48.00
2023-04-05T20:56:22.974Z,48.00
2023-04-05T20:58:50.456Z,48.10
2023-04-05T21:01:18.125Z,47.90
2023-04-05T21:03:45.584Z,47.70
2023-04-05T21:06:12.993Z,47.90
2023-04-05T21:08:41.365Z,47.90
2023-04-05T21:11:11.574Z,48.10
2023-04-05T21:13:41.148Z,47.90
2023-04-05T21:16:09.422Z,47.70
2023-04-05T21:18:36.846Z,47.90
2023-04-05T21:21:04.566Z,47.80
2023-04-05T21:23:34.206Z,48.00
2023-04-05T21:26:04.326Z,48.60
2023-04-05T21:28:32.553Z,49.60
2023-04-05T21:30:59.962Z,49.90
2023-04-05T21:33:27.496Z,49.90
2023-04-05T21:35:55.034Z,50.20
2023-04-05T21:38:22.577Z,51.00
2023-04-05T21:40:50.678Z,51.40
2023-04-05T21:43:17.937Z,51.90
2023-04-05T21:45:46.560Z,52.40
2023-04-05T21:48:14.118Z,52.40
2023-04-05T21:50:41.604Z,52.50
2023-04-05T21:53:09.793Z,52.70
2023-04-05T21:55:37.312Z,52.80
2023-04-05T21:58:04.806Z,52.60
2023-04-05T22:00:32.803Z,52.40
2023-04-05T22:03:00.664Z,52.30
2023-04-05T22:05:37.372Z,52.20
2023-04-05T22:08:07.208Z,51.90
2023-04-05T22:10:35.569Z,51.70
2023-04-05T22:13:02.921Z,51.60
2023-04-05T22:15:30.535Z,51.50
2023-04-05T22:17:57.949Z,51.60
2023-04-05T22:20:25.776Z,51.70
2023-04-05T22:22:53.128Z,52.10
2023-04-05T22:25:20.830Z,52.10
2023-04-05T22:27:48.134Z,52.70
2023-04-05T22:30:16.123Z,52.00
2023-04-05T22:32:44.336Z,52.00
2023-04-05T22:35:11.743Z,52.60
2023-04-05T22:37:40.504Z,53.00
2023-04-05T22:40:09.106Z,53.20
2023-04-05T22:42:38.151Z,53.00
2023-04-05T22:45:07.345Z,52.90
2023-04-05T22:47:35.137Z,52.80
2023-04-05T22:50:02.462Z,52.80
2023-04-05T22:52:29.997Z,52.70
2023-04-05T22:54:57.695Z,52.80
2023-04-05T22:57:24.930Z,52.80
2023-04-05T22:59:52.186Z,52.80
2023-04-05T23:02:20.695Z,52.70
2023-04-05T23:04:48.049Z,52.60
2023-04-05T23:07:15.417Z,52.40
2023-04-05T23:09:42.759Z,52.40
2023-04-05T23:12:11.026Z,52.30
2023-04-05T23:14:38.281Z,52.50
2023-04-05T23:17:05.845Z,52.50
2023-04-05T23:19:33.174Z,52.70
2023-04-05T23:22:00.822Z,52.80
2023-04-05T23:24:28.448Z,52.80
2023-04-05T23:26:55.795Z,52.80
2023-04-05T23:29:23.150Z,52.70
2023-04-05T23:31:52.974Z,53.10
2023-04-05T23:34:20.750Z,53.00
2023-04-05T23:36:48.071Z,52.80
2023-04-05T23:39:15.656Z,53.20
2023-04-05T23:41:43.069Z,53.30
2023-04-05T23:44:10.367Z,53.40
2023-04-05T23:46:37.631Z,53.70
2023-04-05T23:49:05.160Z,54.10
2023-04-05T23:51:32.507Z,54.40
2023-04-05T23:53:59.945Z,54.70
2023-04-05T23:56:27.522Z,55.00
2023-04-05T23:58:54.809Z,54.70
